createdAt,value
2023-04-22T00:00:47.190Z,19.40
2023-04-22T00:01:47.108Z,18.80
2023-04-22T00:02:47.199Z,18.90
2023-04-22T00:03:47.258Z,17.20
2023-04-22T00:04:47.245Z,18.30
2023-04-22T00:05:47.253Z,18.80
2023-04-22T00:06:47.023Z,17.00
2023-04-22T00:07:46.987Z,19.50
2023-04-22T00:08:47.010Z,20.50
2023-04-22T00:09:46.984Z,18.30
2023-04-22T00:10:47.003Z,17.20
2023-04-22T00:11:46.948Z,19.50
2023-04-22T00:12:46.945Z,18.40
2023-04-22T00:13:47.121Z,19.30
2023-04-22T00:14:46.942Z,18.40
2023-04-22T00:15:46.898Z,17.20
2023-04-22T00:16:47.043Z,18.60
2023-04-22T00:17:46.915Z,16.50
2023-04-22T00:18:46.883Z,16.50
2023-04-22T00:19:46.883Z,16.00
2023-04-22T00:20:46.972Z,16.80
2023-04-22T00:21:46.817Z,17.30
2023-04-22T00:22:46.825Z,17.30
2023-04-22T00:23:46.789Z,16.70
2023-04-22T00:24:46.841Z,17.10
2023-04-22T00:25:46.754Z,16.80
2023-04-22T00:26:46.781Z,15.30
2023-04-22T00:27:46.770Z,17.10
2023-04-22T00:28:46.765Z,15.70
2023-04-22T00:29:46.731Z,15.40
2023-04-22T00:30:46.750Z,17.00
2023-04-22T00:31:46.769Z,15.80
2023-04-22T00:32:46.802Z,15.60
2023-04-22T00:33:46.712Z,15.80
2023-04-22T00:34:46.690Z,15.00
2023-04-22T00:35:46.669Z,15.50
2023-04-22T00:36:46.643Z,16.20
2023-04-22T00:37:46.626Z,16.00
2023-04-22T00:38:46.581Z,17.70
2023-04-22T00:39:46.640Z,17.50
2023-04-22T00:40:46.597Z,16.90
2023-04-22T00:41:46.607Z,17.80
2023-04-22T00:42:46.618Z,18.30
2023-04-22T00:43:46.613Z,19.00
2023-04-22T00:44:46.580Z,19.90
2023-04-22T00:45:46.505Z,20.30
2023-04-22T00:46:46.537Z,19.50
2023-04-22T00:47:46.508Z,17.80
2023-04-22T00:48:46.504Z,17.50
2023-04-22T00:49:46.474Z,16.70
2023-04-22T00:50:46.521Z,18.00
2023-04-22T00:51:46.454Z,16.40
2023-04-22T00:52:46.470Z,16.30
2023-04-22T00:53:46.441Z,17.30
2023-04-22T00:54:46.425Z,17.00
2023-04-22T00:55:46.393Z,16.80
2023-04-22T00:56:46.412Z,18.80
2023-04-22T00:57:46.410Z,24.50
2023-04-22T00:58:46.361Z,24.80
2023-04-22T00:59:46.345Z,22.90
2023-04-22T01:00:46.360Z,23.40
2023-04-22T01:01:46.439Z,21.60
2023-04-22T01:02:46.440Z,19.00
2023-04-22T01:03:46.440Z,16.10
2023-04-22T01:04:46.336Z,19.00
2023-04-22T01:05:46.352Z,14.40
2023-04-22T01:06:46.309Z,15.50
2023-04-22T01:07:46.488Z,23.40
2023-04-22T01:08:46.299Z,17.80
2023-04-22T01:09:46.278Z,15.40
2023-04-22T01:10:46.209Z,16.20
2023-04-22T01:11:46.174Z,21.80
2023-04-22T01:12:46.261Z,16.10
2023-04-22T01:13:46.189Z,21.50
2023-04-22T01:14:46.183Z,20.90
2023-04-22T01:15:46.139Z,22.30
2023-04-22T01:16:46.162Z,21.00
2023-04-22T01:17:46.156Z,24.90
2023-04-22T01:18:46.145Z,22.40
2023-04-22T01:19:46.192Z,22.40
2023-04-22T01:20:46.116Z,19.50
2023-04-22T01:21:46.136Z,21.70
2023-04-22T01:22:46.124Z,22.20
2023-04-22T01:23:46.043Z,22.90
2023-04-22T01:24:46.046Z,20.10
2023-04-22T01:25:46.028Z,24.70
2023-04-22T01:26:46.036Z,24.30
2023-04-22T01:27:46.430Z,24.10
2023-04-22T01:28:46.045Z,21.20
2023-04-22T01:29:45.993Z,22.70
2023-04-22T01:30:46.058Z,24.10
2023-04-22T01:31:46.000Z,24.40
2023-04-22T01:32:46.007Z,23.90
2023-04-22T01:33:45.964Z,23.50
2023-04-22T01:34:45.940Z,23.90
2023-04-22T01:35:45.939Z,25.00
2023-04-22T01:36:45.955Z,24.50
2023-04-22T01:37:45.913Z,25.20
2023-04-22T01:38:45.870Z,26.50
2023-04-22T01:39:45.892Z,25.10
2023-04-22T01:40:45.862Z,25.00
2023-04-22T01:41:45.851Z,24.00
2023-04-22T01:42:45.803Z,24.60
2023-04-22T01:43:45.811Z,25.20
2023-04-22T01:44:45.835Z,25.20
2023-04-22T01:45:45.873Z,25.20
2023-04-22T01:46:45.767Z,26.00
2023-04-22T01:47:45.848Z,25.50
2023-04-22T01:48:45.751Z,25.90
2023-04-22T01:49:45.718Z,26.20
2023-04-22T01:50:45.750Z,26.00
2023-04-22T01:51:45.739Z,24.90
2023-04-22T01:52:45.750Z,25.70
2023-04-22T01:53:45.703Z,25.50
2023-04-22T01:54:45.719Z,26.60
2023-04-22T01:55:45.673Z,26.10
2023-04-22T01:56:45.657Z,25.30
2023-04-22T01:57:45.686Z,25.30
2023-04-22T01:58:45.671Z,25.60
2023-04-22T01:59:45.658Z,25.20
2023-04-22T02:00:45.643Z,26.70
2023-04-22T02:01:45.612Z,26.40
2023-04-22T02:02:45.762Z,26.30
2023-04-22T02:03:45.631Z,26.60
2023-04-22T02:04:45.630Z,26.60
2023-04-22T02:05:45.549Z,25.80
2023-04-22T02:06:45.531Z,25.50
2023-04-22T02:07:45.523Z,25.40
2023-04-22T02:08:45.508Z,26.10
2023-04-22T02:09:45.487Z,25.60
2023-04-22T02:10:45.527Z,29.80
2023-04-22T02:11:45.454Z,27.00
2023-04-22T02:12:45.434Z,25.40
2023-04-22T02:13:45.431Z,24.90
2023-04-22T02:14:45.426Z,25.40
2023-04-22T02:15:45.485Z,24.70
2023-04-22T02:16:45.429Z,25.00
2023-04-22T02:17:45.405Z,23.60
2023-04-22T02:18:45.371Z,23.20
2023-04-22T02:19:45.449Z,23.90
2023-04-22T02:20:45.372Z,24.40
2023-04-22T02:21:45.352Z,23.60
2023-04-22T02:22:45.337Z,23.30
2023-04-22T02:23:45.320Z,23.50
2023-04-22T02:24:45.292Z,23.90
2023-04-22T02:25:45.311Z,23.60
2023-04-22T02:26:45.296Z,23.60
2023-04-22T02:27:45.268Z,21.70
2023-04-22T02:28:45.226Z,23.40
2023-04-22T02:29:45.237Z,20.90
2023-04-22T02:30:45.245Z,20.00
2023-04-22T02:31:45.290Z,20.10
2023-04-22T02:32:45.253Z,21.10
2023-04-22T02:33:45.197Z,19.90
2023-04-22T02:34:45.165Z,19.00
2023-04-22T02:35:45.168Z,18.80
2023-04-22T02:36:45.161Z,18.80
2023-04-22T02:37:45.194Z,18.90
2023-04-22T02:38:45.133Z,18.80
2023-04-22T02:39:45.102Z,18.10
2023-04-22T02:40:45.126Z,21.00
2023-04-22T02:41:45.097Z,18.20
2023-04-22T02:42:45.078Z,18.40
2023-04-22T02:43:45.099Z,17.30
2023-04-22T02:44:45.087Z,17.90
2023-04-22T02:45:45.064Z,18.60
2023-04-22T02:46:45.073Z,19.70
2023-04-22T02:47:45.033Z,17.80
2023-04-22T02:48:45.002Z,17.30
2023-04-22T02:49:45.001Z,18.10
2023-04-22T02:50:44.985Z,17.30
2023-04-22T02:51:44.973Z,19.00
2023-04-22T02:52:44.933Z,18.00
2023-04-22T02:53:44.948Z,17.80
2023-04-22T02:54:44.961Z,17.20
2023-04-22T02:55:44.915Z,17.60
2023-04-22T02:56:44.931Z,16.40
2023-04-22T02:57:44.886Z,17.20
2023-04-22T02:58:44.891Z,16.70
2023-04-22T02:59:44.901Z,17.80
2023-04-22T03:00:44.960Z,18.00
2023-04-22T03:01:44.943Z,18.30
2023-04-22T03:02:44.941Z,17.70
2023-04-22T03:03:44.986Z,18.20
2023-04-22T03:04:44.860Z,18.80
2023-04-22T03:05:44.815Z,17.40
2023-04-22T03:06:44.795Z,19.40
2023-04-22T03:07:44.777Z,20.40
2023-04-22T03:08:44.748Z,19.50
2023-04-22T03:09:44.816Z,19.60
2023-04-22T03:10:44.712Z,19.10
2023-04-22T03:11:44.709Z,19.60
2023-04-22T03:12:44.715Z,20.20
2023-04-22T03:13:44.687Z,20.10
2023-04-22T03:14:44.706Z,19.00
2023-04-22T03:15:44.673Z,19.80
2023-04-22T03:16:44.737Z,18.90
2023-04-22T03:17:44.747Z,18.90
2023-04-22T03:18:44.700Z,19.40
2023-04-22T03:19:44.600Z,19.00
2023-04-22T03:20:44.600Z,19.30
2023-04-22T03:21:44.601Z,19.10
2023-04-22T03:22:44.589Z,18.10
2023-04-22T03:23:44.612Z,18.20
2023-04-22T03:24:44.538Z,19.00
2023-04-22T03:25:44.539Z,17.90
2023-04-22T03:26:44.533Z,18.70
2023-04-22T03:27:44.534Z,18.40
2023-04-22T03:28:44.519Z,17.90
2023-04-22T03:29:44.597Z,18.60
2023-04-22T03:30:44.596Z,17.40
2023-04-22T03:31:44.542Z,19.70
2023-04-22T03:32:44.528Z,20.00
2023-04-22T03:33:44.425Z,18.60
2023-04-22T03:34:44.470Z,18.90
2023-04-22T03:35:44.537Z,19.60
2023-04-22T03:36:44.417Z,20.00
2023-04-22T03:37:44.406Z,18.40
2023-04-22T03:38:44.401Z,18.40
2023-04-22T03:39:44.477Z,18.80
2023-04-22T03:40:44.418Z,18.70
2023-04-22T03:41:44.343Z,18.30
2023-04-22T03:42:44.409Z,19.90
2023-04-22T03:43:44.368Z,20.30
2023-04-22T03:44:45.987Z,19.50
2023-04-22T03:45:44.305Z,18.60
2023-04-22T03:46:44.274Z,19.00
2023-04-22T03:47:44.364Z,19.20
2023-04-22T03:48:45.872Z,18.80
2023-04-22T03:49:44.365Z,18.50
2023-04-22T03:50:44.227Z,18.30
2023-04-22T03:51:44.243Z,17.50
2023-04-22T03:52:44.262Z,19.10
2023-04-22T03:53:45.669Z,17.80
2023-04-22T03:54:44.292Z,17.30
2023-04-22T03:55:45.744Z,17.00
2023-04-22T03:56:44.158Z,16.50
2023-04-22T03:57:44.184Z,17.50
2023-04-22T03:58:44.245Z,16.90
2023-04-22T03:59:44.205Z,17.00
2023-04-22T04:00:44.113Z,17.90
2023-04-22T04:01:44.087Z,16.80
2023-04-22T04:02:44.206Z,16.50
2023-04-22T04:03:44.755Z,16.70
2023-04-22T04:04:44.637Z,16.90
2023-04-22T04:05:45.565Z,16.50
2023-04-22T04:06:44.235Z,16.60
2023-04-22T04:07:44.117Z,16.20
2023-04-22T04:08:44.121Z,16.90
2023-04-22T04:09:44.029Z,15.80
2023-04-22T04:10:44.001Z,15.40
2023-04-22T04:11:44.241Z,16.30
2023-04-22T04:12:45.117Z,17.10
2023-04-22T04:13:43.925Z,17.20
2023-04-22T04:14:43.940Z,16.00
2023-04-22T04:15:44.005Z,16.40
2023-04-22T04:16:43.938Z,17.30
2023-04-22T04:17:44.101Z,15.90
2023-04-22T04:18:43.907Z,16.30
2023-04-22T04:19:44.148Z,16.40
2023-04-22T04:20:43.898Z,16.30
2023-04-22T04:21:43.886Z,15.70
2023-04-22T04:22:43.824Z,15.80
2023-04-22T04:23:44.013Z,15.70
2023-04-22T04:24:45.793Z,16.10
2023-04-22T04:25:44.318Z,16.40
2023-04-22T04:26:43.945Z,15.90
2023-04-22T04:27:43.832Z,15.90
2023-04-22T04:28:44.969Z,15.90
2023-04-22T04:29:44.930Z,15.80
2023-04-22T04:30:43.924Z,16.20
2023-04-22T04:31:43.968Z,15.90
2023-04-22T04:32:44.702Z,15.40
2023-04-22T04:33:44.197Z,15.50
2023-04-22T04:34:43.811Z,15.90
2023-04-22T04:35:43.816Z,15.90
2023-04-22T04:36:44.754Z,15.70
2023-04-22T04:37:43.820Z,15.10
2023-04-22T04:38:44.025Z,15.80
2023-04-22T04:39:44.899Z,15.80
2023-04-22T04:40:43.717Z,15.80
2023-04-22T04:41:44.357Z,16.30
2023-04-22T04:42:43.685Z,16.60
2023-04-22T04:43:43.693Z,15.70
2023-04-22T04:44:43.572Z,16.10
2023-04-22T04:45:44.957Z,15.90
2023-04-22T04:46:43.974Z,15.60
2023-04-22T04:47:44.373Z,16.00
2023-04-22T04:48:43.530Z,15.30
2023-04-22T04:49:43.606Z,15.60
2023-04-22T04:50:43.522Z,15.90
2023-04-22T04:51:43.707Z,16.10
2023-04-22T04:52:43.559Z,16.10
2023-04-22T04:53:43.447Z,15.60
2023-04-22T04:54:44.315Z,15.00
2023-04-22T04:55:43.445Z,16.10
2023-04-22T04:56:43.403Z,16.00
2023-04-22T04:57:43.431Z,16.10
2023-04-22T04:58:43.458Z,15.70
2023-04-22T04:59:44.769Z,14.90
2023-04-22T05:00:43.431Z,15.40
2023-04-22T05:01:43.394Z,14.50
2023-04-22T05:02:43.630Z,15.30
2023-04-22T05:03:43.521Z,14.30
2023-04-22T05:04:43.511Z,15.60
2023-04-22T05:05:44.064Z,14.20
2023-04-22T05:06:43.274Z,14.50
2023-04-22T05:07:43.330Z,15.40
2023-04-22T05:08:43.302Z,14.30
2023-04-22T05:09:43.356Z,14.60
2023-04-22T05:10:43.300Z,14.80
2023-04-22T05:11:43.272Z,14.20
2023-04-22T05:12:43.356Z,14.10
2023-04-22T05:13:43.353Z,15.20
2023-04-22T05:14:43.220Z,14.90
2023-04-22T05:15:43.239Z,14.70
2023-04-22T05:16:43.182Z,14.80
2023-04-22T05:17:43.424Z,14.50
2023-04-22T05:18:43.121Z,14.40
2023-04-22T05:19:43.225Z,14.50
2023-04-22T05:20:43.127Z,14.00
2023-04-22T05:21:43.165Z,15.30
2023-04-22T05:22:43.110Z,15.10
2023-04-22T05:23:43.209Z,15.40
2023-04-22T05:24:43.224Z,14.70
2023-04-22T05:25:43.079Z,15.00
2023-04-22T05:26:43.169Z,14.40
2023-04-22T05:27:43.417Z,14.40
2023-04-22T05:28:43.236Z,15.50
2023-04-22T05:29:44.492Z,15.60
2023-04-22T05:30:43.174Z,14.70
2023-04-22T05:31:43.246Z,15.10
2023-04-22T05:32:43.097Z,15.60
2023-04-22T05:33:44.060Z,15.40
2023-04-22T05:34:43.067Z,14.90
2023-04-22T05:35:42.963Z,14.50
2023-04-22T05:36:44.434Z,14.60
2023-04-22T05:37:43.167Z,14.30
2023-04-22T05:38:43.841Z,15.30
2023-04-22T05:39:42.953Z,14.80
2023-04-22T05:40:42.906Z,15.10
2023-04-22T05:41:44.806Z,15.10
2023-04-22T05:42:43.010Z,15.60
2023-04-22T05:43:43.780Z,15.70
2023-04-22T05:44:42.999Z,15.10
2023-04-22T05:45:42.964Z,15.40
2023-04-22T05:46:42.824Z,14.60
2023-04-22T05:47:44.723Z,14.20
2023-04-22T05:48:44.518Z,15.30
2023-04-22T05:49:42.918Z,15.10
2023-04-22T05:50:42.861Z,15.90
2023-04-22T05:51:43.889Z,16.40
2023-04-22T05:52:42.840Z,15.30
2023-04-22T05:53:55.764Z,14.50
2023-04-22T05:54:46.851Z,13.90
2023-04-22T05:55:42.688Z,14.30
2023-04-22T05:56:42.622Z,14.40
2023-04-22T05:57:42.632Z,15.20
2023-04-22T05:58:42.613Z,14.20
2023-04-22T05:59:42.871Z,14.30
2023-04-22T06:00:42.615Z,14.60
2023-04-22T06:01:42.583Z,14.60
2023-04-22T06:02:42.693Z,14.60
2023-04-22T06:03:42.739Z,15.50
2023-04-22T06:04:42.822Z,15.10
2023-04-22T06:05:42.606Z,14.60
2023-04-22T06:06:42.488Z,14.40
2023-04-22T06:07:42.499Z,15.30
2023-04-22T06:08:42.629Z,14.30
2023-04-22T06:09:42.675Z,15.70
2023-04-22T06:10:49.988Z,15.60
2023-04-22T06:11:42.416Z,15.30
2023-04-22T06:12:42.430Z,14.70
2023-04-22T06:13:42.438Z,15.10
2023-04-22T06:14:42.467Z,15.10
2023-04-22T06:15:42.427Z,14.80
2023-04-22T06:16:42.342Z,15.00
2023-04-22T06:17:42.448Z,15.40
2023-04-22T06:18:42.399Z,14.50
2023-04-22T06:19:42.499Z,14.90
2023-04-22T06:20:42.346Z,14.60
2023-04-22T06:21:43.099Z,14.40
2023-04-22T06:22:42.331Z,14.30
2023-04-22T06:23:42.337Z,14.40
2023-04-22T06:24:42.279Z,14.70
2023-04-22T06:25:42.231Z,14.30
2023-04-22T06:26:42.289Z,13.10
2023-04-22T06:27:42.218Z,14.30
2023-04-22T06:28:42.223Z,14.40
2023-04-22T06:29:42.197Z,12.90
2023-04-22T06:30:42.184Z,13.70
2023-04-22T06:31:42.183Z,12.00
2023-04-22T06:32:42.154Z,12.20
2023-04-22T06:33:42.347Z,13.10
2023-04-22T06:34:42.115Z,13.20
2023-04-22T06:35:42.263Z,13.50
2023-04-22T06:36:42.072Z,14.20
2023-04-22T06:37:42.081Z,13.10
2023-04-22T06:38:42.093Z,13.50
2023-04-22T06:39:42.325Z,14.00
2023-04-22T06:40:42.033Z,13.20
2023-04-22T06:41:42.263Z,13.00
2023-04-22T06:42:42.126Z,12.90
2023-04-22T06:43:42.089Z,14.00
2023-04-22T06:44:42.130Z,13.30
2023-04-22T06:45:42.004Z,14.60
2023-04-22T06:46:42.163Z,13.90
2023-04-22T06:47:41.987Z,13.50
2023-04-22T06:48:41.942Z,13.00
2023-04-22T06:49:42.078Z,13.20
2023-04-22T06:50:41.915Z,12.90
2023-04-22T06:51:43.560Z,13.20
2023-04-22T06:52:41.891Z,12.50
2023-04-22T06:53:41.867Z,12.90
2023-04-22T06:54:41.850Z,13.40
2023-04-22T06:55:41.818Z,13.20
2023-04-22T06:56:41.832Z,14.10
2023-04-22T06:57:41.805Z,14.00
2023-04-22T06:58:42.323Z,12.00
2023-04-22T06:59:43.266Z,12.50
2023-04-22T07:00:41.727Z,12.60
2023-04-22T07:01:41.759Z,11.30
2023-04-22T07:02:41.797Z,11.50
2023-04-22T07:03:41.796Z,10.70
2023-04-22T07:04:41.782Z,11.00
2023-04-22T07:05:41.672Z,10.00
2023-04-22T07:06:41.639Z,9.90
2023-04-22T07:07:41.663Z,10.20
2023-04-22T07:08:41.616Z,10.10
2023-04-22T07:09:41.991Z,10.00
2023-04-22T07:10:41.636Z,10.20
2023-04-22T07:11:41.616Z,9.30
2023-04-22T07:12:41.603Z,7.70
2023-04-22T07:13:41.541Z,7.70
2023-04-22T07:14:41.526Z,5.00
2023-04-22T07:15:41.532Z,5.00
2023-04-22T07:16:41.628Z,3.90
2023-04-22T07:17:41.534Z,2.80
2023-04-22T07:18:41.510Z,3.00
2023-04-22T07:19:41.819Z,2.90
2023-04-22T07:20:41.445Z,2.30
2023-04-22T07:21:41.439Z,2.00
2023-04-22T07:22:41.437Z,2.20
2023-04-22T07:23:41.445Z,1.80
2023-04-22T07:24:41.429Z,2.20
2023-04-22T07:25:41.373Z,1.90
2023-04-22T07:26:41.414Z,2.00
2023-04-22T07:27:41.350Z,1.80
2023-04-22T07:28:41.398Z,1.80
2023-04-22T07:29:41.673Z,1.70
2023-04-22T07:30:42.009Z,2.00
2023-04-22T07:31:41.330Z,1.90
2023-04-22T07:32:41.389Z,1.60
2023-04-22T07:33:41.344Z,1.50
2023-04-22T07:34:41.316Z,1.60
2023-04-22T07:35:41.245Z,1.60
2023-04-22T07:36:41.256Z,1.60
2023-04-22T07:37:41.212Z,1.50
2023-04-22T07:38:41.189Z,1.50
2023-04-22T07:39:41.612Z,1.40
2023-04-22T07:40:41.182Z,1.60
2023-04-22T07:41:41.179Z,1.30
2023-04-22T07:42:41.171Z,1.40
2023-04-22T07:43:41.145Z,1.50
2023-04-22T07:44:41.132Z,1.60
2023-04-22T07:45:41.121Z,1.50
2023-04-22T07:46:41.109Z,1.50
2023-04-22T07:47:41.109Z,1.50
2023-04-22T07:48:41.132Z,1.60
2023-04-22T07:49:41.512Z,1.30
2023-04-22T07:50:41.151Z,1.70
2023-04-22T07:51:41.128Z,1.50
2023-04-22T07:52:41.030Z,1.60
2023-04-22T07:53:41.034Z,1.50
2023-04-22T07:54:40.978Z,1.80
2023-04-22T07:55:40.981Z,1.50
2023-04-22T07:56:40.973Z,1.50
2023-04-22T07:57:40.991Z,1.40
2023-04-22T07:58:40.928Z,1.50
2023-04-22T07:59:41.186Z,1.50
2023-04-22T08:00:41.069Z,1.50
2023-04-22T08:01:40.876Z,1.50
2023-04-22T08:02:41.019Z,1.50
2023-04-22T08:03:41.025Z,1.50
2023-04-22T08:04:41.015Z,1.40
2023-04-22T08:05:40.852Z,1.40
2023-04-22T08:06:40.825Z,1.20
2023-04-22T08:07:40.847Z,1.40
2023-04-22T08:08:40.818Z,1.30
2023-04-22T08:09:41.011Z,1.50
2023-04-22T08:10:40.781Z,1.40
2023-04-22T08:11:40.864Z,1.60
2023-04-22T08:12:40.756Z,1.20
2023-04-22T08:13:40.743Z,1.20
2023-04-22T08:14:40.720Z,1.20
2023-04-22T08:15:40.743Z,1.30
2023-04-22T08:16:40.705Z,1.20
2023-04-22T08:17:40.697Z,1.70
2023-04-22T08:18:40.656Z,1.50
2023-04-22T08:19:40.809Z,1.30
2023-04-22T08:20:40.647Z,1.50
2023-04-22T08:21:40.747Z,1.60
2023-04-22T08:22:40.634Z,1.40
2023-04-22T08:23:40.696Z,1.10
2023-04-22T08:24:40.575Z,1.20
2023-04-22T08:25:40.662Z,1.60
2023-04-22T08:26:40.560Z,1.30
2023-04-22T08:27:40.630Z,1.10
2023-04-22T08:28:40.556Z,1.40
2023-04-22T08:29:40.983Z,1.20
2023-04-22T08:30:40.498Z,1.10
2023-04-22T08:31:40.724Z,1.20
2023-04-22T08:32:40.488Z,1.30
2023-04-22T08:33:40.434Z,1.30
2023-04-22T08:34:40.887Z,1.60
2023-04-22T08:35:40.452Z,1.10
2023-04-22T08:36:40.437Z,1.20
2023-04-22T08:37:40.413Z,1.10
2023-04-22T08:38:40.406Z,1.10
2023-04-22T08:39:40.744Z,1.40
2023-04-22T08:40:40.364Z,1.20
2023-04-22T08:41:40.376Z,1.20
2023-04-22T08:42:40.448Z,1.20
2023-04-22T08:43:40.358Z,1.20
2023-04-22T08:44:40.311Z,1.20
2023-04-22T08:45:40.271Z,1.80
2023-04-22T08:46:40.482Z,1.30
2023-04-22T08:47:40.315Z,1.40
2023-04-22T08:48:40.263Z,1.20
2023-04-22T08:49:40.532Z,1.20
2023-04-22T08:50:40.295Z,1.30
2023-04-22T08:51:40.249Z,1.10
2023-04-22T08:52:40.244Z,1.30
2023-04-22T08:53:40.187Z,1.20
2023-04-22T08:54:40.252Z,1.20
2023-04-22T08:55:40.172Z,1.10
2023-04-22T08:56:40.265Z,1.30
2023-04-22T08:57:40.123Z,1.30
2023-04-22T08:58:40.280Z,1.20
2023-04-22T08:59:40.330Z,1.60
2023-04-22T09:00:40.204Z,1.20
2023-04-22T09:01:40.304Z,1.30
2023-04-22T09:02:40.126Z,1.10
2023-04-22T09:03:40.146Z,1.20
2023-04-22T09:04:40.090Z,1.50
2023-04-22T09:05:40.063Z,1.10
2023-04-22T09:06:39.998Z,1.20
2023-04-22T09:07:39.997Z,1.10
2023-04-22T09:08:40.080Z,1.10
2023-04-22T09:09:40.310Z,1.50
2023-04-22T09:10:39.942Z,1.40
2023-04-22T09:11:39.979Z,1.20
2023-04-22T09:12:40.022Z,1.20
2023-04-22T09:13:39.978Z,1.00
2023-04-22T09:14:39.895Z,1.40
2023-04-22T09:15:39.960Z,1.10
2023-04-22T09:16:39.887Z,1.20
2023-04-22T09:17:40.090Z,1.20
2023-04-22T09:18:39.851Z,1.20
2023-04-22T09:19:40.085Z,1.20
2023-04-22T09:20:39.817Z,1.20
2023-04-22T09:21:39.967Z,1.00
2023-04-22T09:22:39.810Z,1.20
2023-04-22T09:23:39.804Z,1.50
2023-04-22T09:24:39.755Z,1.60
2023-04-22T09:25:39.757Z,1.20
2023-04-22T09:26:39.753Z,1.20
2023-04-22T09:27:39.718Z,1.20
2023-04-22T09:28:39.763Z,1.20
2023-04-22T09:29:40.030Z,1.20
2023-04-22T09:30:39.725Z,1.10
2023-04-22T09:31:39.675Z,1.40
2023-04-22T09:32:39.724Z,1.40
2023-04-22T09:33:39.658Z,1.00
2023-04-22T09:34:39.668Z,1.20
2023-04-22T09:35:39.602Z,1.20
2023-04-22T09:36:39.629Z,1.50
2023-04-22T09:37:48.786Z,1.40
2023-04-22T09:38:40.596Z,1.10
2023-04-22T09:39:39.767Z,1.00
2023-04-22T09:40:39.555Z,1.10
2023-04-22T09:41:39.587Z,1.20
2023-04-22T09:42:39.511Z,1.50
2023-04-22T09:43:39.561Z,1.20
2023-04-22T09:44:39.479Z,1.00
2023-04-22T09:45:39.520Z,1.20
2023-04-22T09:46:39.493Z,1.30
2023-04-22T09:47:39.550Z,1.10
2023-04-22T09:48:39.475Z,0.90
2023-04-22T09:49:39.736Z,1.20
2023-04-22T09:50:39.443Z,1.10
2023-04-22T09:51:39.456Z,1.20
2023-04-22T09:52:39.393Z,1.20
2023-04-22T09:53:39.398Z,1.00
2023-04-22T09:54:39.358Z,1.30
2023-04-22T09:55:39.331Z,1.10
2023-04-22T09:56:39.449Z,1.20
2023-04-22T09:57:39.353Z,1.30
2023-04-22T09:58:39.345Z,1.50
2023-04-22T09:59:39.660Z,1.20
2023-04-22T10:00:39.300Z,1.20
2023-04-22T10:01:39.361Z,1.40
2023-04-22T10:02:39.381Z,1.80
2023-04-22T10:03:39.351Z,1.60
2023-04-22T10:04:39.240Z,1.50
2023-04-22T10:05:39.201Z,1.20
2023-04-22T10:06:39.279Z,1.40
2023-04-22T10:07:39.206Z,1.20
2023-04-22T10:08:39.189Z,1.30
2023-04-22T10:09:39.339Z,1.40
2023-04-22T10:10:39.145Z,1.10
2023-04-22T10:11:39.152Z,1.10
2023-04-22T10:12:39.165Z,1.20
2023-04-22T10:13:39.105Z,1.20
2023-04-22T10:14:39.139Z,1.30
2023-04-22T10:15:39.069Z,1.30
2023-04-22T10:16:39.075Z,1.30
2023-04-22T10:17:39.126Z,1.10
2023-04-22T10:18:39.046Z,1.10
2023-04-22T10:19:39.192Z,1.20
2023-04-22T10:20:39.102Z,1.30
2023-04-22T10:21:39.063Z,1.20
2023-04-22T10:22:39.136Z,1.30
2023-04-22T10:23:38.951Z,1.40
2023-04-22T10:24:38.961Z,1.20
2023-04-22T10:25:38.937Z,1.20
2023-04-22T10:26:38.913Z,1.20
2023-04-22T10:27:38.898Z,1.20
2023-04-22T10:28:38.971Z,1.00
2023-04-22T10:29:39.334Z,1.20
2023-04-22T10:30:38.906Z,1.30
2023-04-22T10:31:38.880Z,1.50
2023-04-22T10:32:38.875Z,1.40
2023-04-22T10:33:39.228Z,1.20
2023-04-22T10:34:38.902Z,1.20
2023-04-22T10:35:38.819Z,1.40
2023-04-22T10:36:38.810Z,1.20
2023-04-22T10:37:38.742Z,1.30
2023-04-22T10:38:38.851Z,1.20
2023-04-22T10:39:39.071Z,1.30
2023-04-22T10:40:38.750Z,1.10
2023-04-22T10:41:38.714Z,1.40
2023-04-22T10:42:38.787Z,1.20
2023-04-22T10:43:38.692Z,1.30
2023-04-22T10:44:38.668Z,1.20
2023-04-22T10:45:38.656Z,1.10
2023-04-22T10:46:38.721Z,1.50
2023-04-22T10:47:38.673Z,1.60
2023-04-22T10:48:38.639Z,1.50
2023-04-22T10:49:38.807Z,1.40
2023-04-22T10:50:38.603Z,1.60
2023-04-22T10:51:38.601Z,1.60
2023-04-22T10:52:38.588Z,1.40
2023-04-22T10:53:38.547Z,1.40
2023-04-22T10:54:38.531Z,1.60
2023-04-22T10:55:38.565Z,1.60
2023-04-22T10:56:42.844Z,1.40
2023-04-22T10:57:39.661Z,1.60
2023-04-22T10:58:38.531Z,1.30
2023-04-22T10:59:38.653Z,1.70
2023-04-22T11:00:51.630Z,1.60
2023-04-22T11:01:39.560Z,1.90
2023-04-22T11:02:38.767Z,1.70
2023-04-22T11:03:38.569Z,1.30
2023-04-22T11:04:38.474Z,1.40
2023-04-22T11:05:38.429Z,1.60
2023-04-22T11:06:38.371Z,1.50
2023-04-22T11:07:38.382Z,1.40
2023-04-22T11:08:38.418Z,1.50
2023-04-22T11:09:38.590Z,1.40
2023-04-22T11:10:38.330Z,2.00
2023-04-22T11:11:38.317Z,1.70
2023-04-22T11:12:38.301Z,1.50
2023-04-22T11:13:38.278Z,1.40
2023-04-22T11:14:38.278Z,1.50
2023-04-22T11:15:38.284Z,1.40
2023-04-22T11:16:38.340Z,1.40
2023-04-22T11:17:38.287Z,1.50
2023-04-22T11:18:38.268Z,1.60
2023-04-22T11:19:38.408Z,1.60
2023-04-22T11:20:38.258Z,1.60
2023-04-22T11:21:38.205Z,1.60
2023-04-22T11:22:38.169Z,1.70
2023-04-22T11:23:38.344Z,1.60
2023-04-22T11:24:38.144Z,1.70
2023-04-22T11:25:38.120Z,1.50
2023-04-22T11:26:38.113Z,1.50
2023-04-22T11:27:38.173Z,1.40
2023-04-22T11:28:38.098Z,1.50
2023-04-22T11:29:38.332Z,1.50
2023-04-22T11:30:38.091Z,1.30
2023-04-22T11:31:38.078Z,1.50
2023-04-22T11:32:38.087Z,1.50
2023-04-22T11:33:38.010Z,1.30
2023-04-22T11:34:38.005Z,1.20
2023-04-22T11:35:38.024Z,1.50
2023-04-22T11:36:37.977Z,1.60
2023-04-22T11:37:37.990Z,1.40
2023-04-22T11:38:37.932Z,1.70
2023-04-22T11:39:46.550Z,1.20
2023-04-22T11:40:41.306Z,1.80
2023-04-22T11:41:37.953Z,1.20
2023-04-22T11:42:37.922Z,1.20
2023-04-22T11:43:38.019Z,1.50
2023-04-22T11:44:37.852Z,1.50
2023-04-22T11:45:37.908Z,1.10
2023-04-22T11:46:37.911Z,1.40
2023-04-22T11:47:37.863Z,1.40
2023-04-22T11:48:37.892Z,1.00
2023-04-22T11:49:38.035Z,1.30
2023-04-22T11:50:37.886Z,1.30
2023-04-22T11:51:37.804Z,1.40
2023-04-22T11:52:37.785Z,1.40
2023-04-22T11:53:37.752Z,1.40
2023-04-22T11:54:37.970Z,1.30
2023-04-22T11:55:37.759Z,1.30
2023-04-22T11:56:37.777Z,1.00
2023-04-22T11:57:37.708Z,1.30
2023-04-22T11:58:37.680Z,1.20
2023-04-22T11:59:38.211Z,1.40
2023-04-22T12:00:37.705Z,1.10
2023-04-22T12:01:37.666Z,1.20
2023-04-22T12:02:37.833Z,1.40
2023-04-22T12:03:37.868Z,1.50
2023-04-22T12:04:37.678Z,1.40
2023-04-22T12:05:37.759Z,1.50
2023-04-22T12:06:37.663Z,1.20
2023-04-22T12:07:37.646Z,1.20
2023-04-22T12:08:37.548Z,1.50
2023-04-22T12:09:37.961Z,1.60
2023-04-22T12:10:37.640Z,1.30
2023-04-22T12:11:37.515Z,1.30
2023-04-22T12:12:47.063Z,1.30
2023-04-22T12:13:37.537Z,1.10
2023-04-22T12:14:37.585Z,1.40
2023-04-22T12:15:37.547Z,1.40
2023-04-22T12:16:37.568Z,1.20
2023-04-22T12:17:37.697Z,1.10
2023-04-22T12:18:37.447Z,1.30
2023-04-22T12:19:37.677Z,1.30
2023-04-22T12:20:37.392Z,1.30
2023-04-22T12:21:37.386Z,1.40
2023-04-22T12:22:37.394Z,1.20
2023-04-22T12:23:37.480Z,1.30
2023-04-22T12:24:37.330Z,1.10
2023-04-22T12:25:37.327Z,1.20
2023-04-22T12:26:37.328Z,1.40
2023-04-22T12:27:37.345Z,1.20
2023-04-22T12:28:37.373Z,1.30
2023-04-22T12:29:37.642Z,1.50
2023-04-22T12:30:37.271Z,1.30
2023-04-22T12:31:37.256Z,1.30
2023-04-22T12:32:37.356Z,1.30
2023-04-22T12:33:37.378Z,1.40
2023-04-22T12:34:37.263Z,1.30
2023-04-22T12:35:37.404Z,1.50
2023-04-22T12:36:37.201Z,1.50
2023-04-22T12:37:37.673Z,1.60
2023-04-22T12:38:37.135Z,1.40
2023-04-22T12:39:37.198Z,1.70
2023-04-22T12:40:37.186Z,1.90
2023-04-22T12:41:37.150Z,1.40
2023-04-22T12:42:37.085Z,1.40
2023-04-22T12:43:37.201Z,2.30
2023-04-22T12:44:38.460Z,2.30
2023-04-22T12:45:37.090Z,1.50
2023-04-22T12:46:37.055Z,1.30
2023-04-22T12:47:37.120Z,1.40
2023-04-22T12:48:37.103Z,1.50
2023-04-22T12:49:37.469Z,1.40
2023-04-22T12:50:37.296Z,1.50
2023-04-22T12:51:36.993Z,2.00
2023-04-22T12:52:36.978Z,1.60
2023-04-22T12:53:36.975Z,1.60
2023-04-22T12:54:37.041Z,1.30
2023-04-22T12:55:36.940Z,1.50
2023-04-22T12:56:36.956Z,1.60
2023-04-22T12:57:36.904Z,1.30
2023-04-22T12:58:36.949Z,1.50
2023-04-22T12:59:36.895Z,1.40
2023-04-22T13:00:36.877Z,1.50
2023-04-22T13:01:36.908Z,1.50
2023-04-22T13:02:36.944Z,1.40
2023-04-22T13:03:36.989Z,1.30
2023-04-22T13:04:37.002Z,1.30